sensor_id;sensor_type;location;lat;lon;timestamp;temperature;humidity
44723;DHT22;30451;48.638;10.624;2023-03-03T00:01:23;21.70;45.20
44723;DHT22;30451;48.638;10.624;2023-03-03T00:03:51;21.70;45.20
44723;DHT22;30451;48.638;10.624;2023-03-03T00:06:16;21.70;45.20
44723;DHT22;30451;48.638;10.624;2023-03-03T00:08:42;21.60;45.20
44723;DHT22;30451;48.638;10.624;2023-03-03T00:11:08;21.60;45.30
44723;DHT22;30451;48.638;10.624;2023-03-03T00:18:51;21.60;45.30
44723;DHT22;30451;48.638;10.624;2023-03-03T00:21:28;21.50;45.90
44723;DHT22;30451;48.638;10.624;2023-03-03T00:26:37;21.50;45.40
44723;DHT22;30451;48.638;10.624;2023-03-03T00:31:50;21.50;45.50
44723;DHT22;30451;48.638;10.624;2023-03-03T00:34:23;21.50;45.50
44723;DHT22;30451;48.638;10.624;2023-03-03T00:36:52;21.40;45.40
44723;DHT22;30451;48.638;10.624;2023-03-03T00:39:26;21.40;46.00
44723;DHT22;30451;48.638;10.624;2023-03-03T00:41:53;21.40;45.50
44723;DHT22;30451;48.638;10.624;2023-03-03T00:44:44;21.40;45.50
44723;DHT22;30451;48.638;10.624;2023-03-03T00:47:30;21.40;45.50
44723;DHT22;30451;48.638;10.624;2023-03-03T00:50:24;21.40;45.50
44723;DHT22;30451;48.638;10.624;2023-03-03T00:53:17;21.40;45.60
44723;DHT22;30451;48.638;10.624;2023-03-03T00:55:45;21.30;45.60
44723;DHT22;30451;48.638;10.624;2023-03-03T00:58:11;21.30;45.60
44723;DHT22;30451;48.638;10.624;2023-03-03T01:00:37;21.30;46.10
44723;DHT22;30451;48.638;10.624;2023-03-03T01:03:05;21.30;45.60
44723;DHT22;30451;48.638;10.624;2023-03-03T01:05:32;21.30;45.60
44723;DHT22;30451;48.638;10.624;2023-03-03T01:07:58;21.30;45.60
44723;DHT22;30451;48.638;10.624;2023-03-03T01:10:26;21.30;45.60
44723;DHT22;30451;48.638;10.624;2023-03-03T01:12:52;21.20;45.60
44723;DHT22;30451;48.638;10.624;2023-03-03T01:15:18;21.30;45.60
44723;DHT22;30451;48.638;10.624;2023-03-03T01:17:43;21.30;45.60
44723;DHT22;30451;48.638;10.624;2023-03-03T01:20:11;21.20;45.60
44723;DHT22;30451;48.638;10.624;2023-03-03T01:22:37;21.20;45.60
44723;DHT22;30451;48.638;10.624;2023-03-03T01:25:03;21.20;45.60
44723;DHT22;30451;48.638;10.624;2023-03-03T01:27:30;21.20;45.60
44723;DHT22;30451;48.638;10.624;2023-03-03T01:29:56;21.20;45.70
44723;DHT22;30451;48.638;10.624;2023-03-03T01:32:23;21.20;45.60
44723;DHT22;30451;48.638;10.624;2023-03-03T01:34:49;21.20;45.70
44723;DHT22;30451;48.638;10.624;2023-03-03T01:37:15;21.10;45.60
44723;DHT22;30451;48.638;10.624;2023-03-03T01:39:40;21.10;45.60
44723;DHT22;30451;48.638;10.624;2023-03-03T01:42:06;21.10;45.70
44723;DHT22;30451;48.638;10.624;2023-03-03T01:44:32;21.10;45.70
44723;DHT22;30451;48.638;10.624;2023-03-03T01:47:04;21.10;45.70
44723;DHT22;30451;48.638;10.624;2023-03-03T01:49:37;21.10;45.70
44723;DHT22;30451;48.638;10.624;2023-03-03T01:52:15;21.10;45.70
44723;DHT22;30451;48.638;10.624;2023-03-03T01:54:46;21.10;45.70
44723;DHT22;30451;48.638;10.624;2023-03-03T01:57:19;21.00;45.70
44723;DHT22;30451;48.638;10.624;2023-03-03T01:59:48;21.00;45.70
44723;DHT22;30451;48.638;10.624;2023-03-03T02:02:15;21.00;45.80
44723;DHT22;30451;48.638;10.624;2023-03-03T02:04:41;21.00;45.70
44723;DHT22;30451;48.638;10.624;2023-03-03T02:07:09;21.00;45.80
44723;DHT22;30451;48.638;10.624;2023-03-03T02:09:55;21.00;45.80
44723;DHT22;30451;48.638;10.624;2023-03-03T02:12:30;21.00;45.80
44723;DHT22;30451;48.638;10.624;2023-03-03T02:14:57;21.00;46.40
44723;DHT22;30451;48.638;10.624;2023-03-03T02:17:23;20.90;45.80
44723;DHT22;30451;48.638;10.624;2023-03-03T02:20:08;20.90;46.30
44723;DHT22;30451;48.638;10.624;2023-03-03T02:22:47;20.90;45.80
44723;DHT22;30451;48.638;10.624;2023-03-03T02:25:28;20.90;45.90
44723;DHT22;30451;48.638;10.624;2023-03-03T02:27:55;20.90;45.90
44723;DHT22;30451;48.638;10.624;2023-03-03T02:30:22;20.90;45.90
44723;DHT22;30451;48.638;10.624;2023-03-03T02:32:48;20.90;45.90
44723;DHT22;30451;48.638;10.624;2023-03-03T02:35:33;20.90;46.00
44723;DHT22;30451;48.638;10.624;2023-03-03T02:38:14;20.80;45.90
44723;DHT22;30451;48.638;10.624;2023-03-03T02:40:58;20.90;46.00
44723;DHT22;30451;48.638;10.624;2023-03-03T02:43:28;20.80;45.90
44723;DHT22;30451;48.638;10.624;2023-03-03T02:45:54;20.80;45.90
44723;DHT22;30451;48.638;10.624;2023-03-03T02:48:19;20.80;46.00
44723;DHT22;30451;48.638;10.624;2023-03-03T02:50:45;20.80;46.00
44723;DHT22;30451;48.638;10.624;2023-03-03T02:53:11;20.80;46.00
44723;DHT22;30451;48.638;10.624;2023-03-03T02:55:36;20.80;46.00
44723;DHT22;30451;48.638;10.624;2023-03-03T02:58:02;20.80;46.00
44723;DHT22;30451;48.638;10.624;2023-03-03T03:00:27;20.70;46.00
44723;DHT22;30451;48.638;10.624;2023-03-03T03:02:53;20.70;46.00
44723;DHT22;30451;48.638;10.624;2023-03-03T03:05:18;20.70;46.00
44723;DHT22;30451;48.638;10.624;2023-03-03T03:07:44;20.70;46.00
44723;DHT22;30451;48.638;10.624;2023-03-03T03:10:10;20.70;46.10
44723;DHT22;30451;48.638;10.624;2023-03-03T03:12:35;20.70;46.10
44723;DHT22;30451;48.638;10.624;2023-03-03T03:15:01;20.70;46.10
44723;DHT22;30451;48.638;10.624;2023-03-03T03:17:27;20.70;46.10
44723;DHT22;30451;48.638;10.624;2023-03-03T03:19:52;20.70;46.10
44723;DHT22;30451;48.638;10.624;2023-03-03T03:22:18;20.70;46.10
44723;DHT22;30451;48.638;10.624;2023-03-03T03:24:44;20.70;46.10
44723;DHT22;30451;48.638;10.624;2023-03-03T03:27:09;20.60;46.10
44723;DHT22;30451;48.638;10.624;2023-03-03T03:29:35;20.60;46.10
44723;DHT22;30451;48.638;10.624;2023-03-03T03:32:00;20.60;46.10
44723;DHT22;30451;48.638;10.624;2023-03-03T03:34:26;20.60;46.10
44723;DHT22;30451;48.638;10.624;2023-03-03T03:36:52;20.60;46.10
44723;DHT22;30451;48.638;10.624;2023-03-03T03:39:17;20.60;46.10
44723;DHT22;30451;48.638;10.624;2023-03-03T03:41:43;20.60;46.10
44723;DHT22;30451;48.638;10.624;2023-03-03T03:44:08;20.60;46.20
44723;DHT22;30451;48.638;10.624;2023-03-03T03:46:34;20.60;46.20
44723;DHT22;30451;48.638;10.624;2023-03-03T03:48:59;20.60;46.20
44723;DHT22;30451;48.638;10.624;2023-03-03T03:51:25;20.60;46.20
44723;DHT22;30451;48.638;10.624;2023-03-03T03:53:51;20.60;46.20
44723;DHT22;30451;48.638;10.624;2023-03-03T03:56:17;20.60;46.30
44723;DHT22;30451;48.638;10.624;2023-03-03T03:58:43;20.50;46.20
44723;DHT22;30451;48.638;10.624;2023-03-03T04:01:08;20.50;46.20
44723;DHT22;30451;48.638;10.624;2023-03-03T04:03:34;20.50;46.20
44723;DHT22;30451;48.638;10.624;2023-03-03T04:06:00;20.50;46.30
44723;DHT22;30451;48.638;10.624;2023-03-03T04:08:25;20.50;46.30
44723;DHT22;30451;48.638;10.624;2023-03-03T04:10:51;20.50;46.30
44723;DHT22;30451;48.638;10.624;2023-03-03T04:13:17;20.50;46.30
44723;DHT22;30451;48.638;10.624;2023-03-03T04:15:42;20.50;46.30
44723;DHT22;30451;48.638;10.624;2023-03-03T04:18:08;20.50;46.30
44723;DHT22;30451;48.638;10.624;2023-03-03T04:20:34;20.50;46.30
44723;DHT22;30451;48.638;10.624;2023-03-03T04:22:59;20.50;46.40
44723;DHT22;30451;48.638;10.624;2023-03-03T04:25:25;20.50;46.80
44723;DHT22;30451;48.638;10.624;2023-03-03T04:27:50;20.50;46.40
44723;DHT22;30451;48.638;10.624;2023-03-03T04:30:17;20.40;46.30
44723;DHT22;30451;48.638;10.624;2023-03-03T04:32:44;20.40;46.30
44723;DHT22;30451;48.638;10.624;2023-03-03T04:35:10;20.40;46.40
44723;DHT22;30451;48.638;10.624;2023-03-03T04:37:36;20.40;46.40
44723;DHT22;30451;48.638;10.624;2023-03-03T04:40:06;20.40;46.40
44723;DHT22;30451;48.638;10.624;2023-03-03T04:42:33;20.40;46.40
44723;DHT22;30451;48.638;10.624;2023-03-03T04:44:58;20.40;46.40
44723;DHT22;30451;48.638;10.624;2023-03-03T04:47:24;20.40;46.40
44723;DHT22;30451;48.638;10.624;2023-03-03T04:49:50;20.40;46.40
44723;DHT22;30451;48.638;10.624;2023-03-03T04:52:15;20.40;46.40
44723;DHT22;30451;48.638;10.624;2023-03-03T04:54:41;20.40;46.40
44723;DHT22;30451;48.638;10.624;2023-03-03T04:57:06;20.30;46.40
44723;DHT22;30451;48.638;10.624;2023-03-03T04:59:34;20.40;46.50
44723;DHT22;30451;48.638;10.624;2023-03-03T05:01:59;20.40;46.50
44723;DHT22;30451;48.638;10.624;2023-03-03T05:04:25;20.40;46.50
44723;DHT22;30451;48.638;10.624;2023-03-03T05:06:50;20.40;46.50
44723;DHT22;30451;48.638;10.624;2023-03-03T05:09:16;20.40;46.50
44723;DHT22;30451;48.638;10.624;2023-03-03T05:11:42;20.30;46.50
44723;DHT22;30451;48.638;10.624;2023-03-03T05:14:07;20.30;46.50
44723;DHT22;30451;48.638;10.624;2023-03-03T05:16:33;20.40;46.60
44723;DHT22;30451;48.638;10.624;2023-03-03T05:18:58;20.40;46.60
44723;DHT22;30451;48.638;10.624;2023-03-03T05:21:24;20.40;46.60
44723;DHT22;30451;48.638;10.624;2023-03-03T05:23:50;20.30;46.60
44723;DHT22;30451;48.638;10.624;2023-03-03T05:26:16;20.30;46.60
44723;DHT22;30451;48.638;10.624;2023-03-03T05:28:42;20.30;46.80
44723;DHT22;30451;48.638;10.624;2023-03-03T05:31:08;20.30;46.80
44723;DHT22;30451;48.638;10.624;2023-03-03T05:33:33;20.30;46.80
44723;DHT22;30451;48.638;10.624;2023-03-03T05:35:59;20.30;46.90
44723;DHT22;30451;48.638;10.624;2023-03-03T05:38:25;20.30;46.80
44723;DHT22;30451;48.638;10.624;2023-03-03T05:40:50;20.40;46.90
44723;DHT22;30451;48.638;10.624;2023-03-03T05:43:16;20.30;46.80
44723;DHT22;30451;48.638;10.624;2023-03-03T05:45:42;20.30;46.80
44723;DHT22;30451;48.638;10.624;2023-03-03T05:48:07;20.30;46.80
44723;DHT22;30451;48.638;10.624;2023-03-03T05:50:35;20.30;46.80
44723;DHT22;30451;48.638;10.624;2023-03-03T05:53:01;20.30;46.80
44723;DHT22;30451;48.638;10.624;2023-03-03T05:55:27;20.30;46.80
44723;DHT22;30451;48.638;10.624;2023-03-03T05:57:53;20.30;46.90
44723;DHT22;30451;48.638;10.624;2023-03-03T06:00:19;20.30;46.90
44723;DHT22;30451;48.638;10.624;2023-03-03T06:02:44;20.30;46.90
44723;DHT22;30451;48.638;10.624;2023-03-03T06:05:10;20.30;46.90
44723;DHT22;30451;48.638;10.624;2023-03-03T06:07:36;20.30;46.90
44723;DHT22;30451;48.638;10.624;2023-03-03T06:10:03;20.30;47.00
44723;DHT22;30451;48.638;10.624;2023-03-03T06:12:29;20.30;47.00
44723;DHT22;30451;48.638;10.624;2023-03-03T06:14:54;20.30;47.00
44723;DHT22;30451;48.638;10.624;2023-03-03T06:17:20;20.30;47.10
44723;DHT22;30451;48.638;10.624;2023-03-03T06:19:46;20.30;47.00
44723;DHT22;30451;48.638;10.624;2023-03-03T06:22:12;20.30;47.30
44723;DHT22;30451;48.638;10.624;2023-03-03T06:24:38;20.30;48.00
44723;DHT22;30451;48.638;10.624;2023-03-03T06:27:03;20.40;48.10
44723;DHT22;30451;48.638;10.624;2023-03-03T06:29:29;20.60;48.10
44723;DHT22;30451;48.638;10.624;2023-03-03T06:31:55;20.70;48.10
44723;DHT22;30451;48.638;10.624;2023-03-03T06:34:20;20.90;47.80
44723;DHT22;30451;48.638;10.624;2023-03-03T06:36:46;21.10;48.20
44723;DHT22;30451;48.638;10.624;2023-03-03T06:39:12;21.30;47.60
44723;DHT22;30451;48.638;10.624;2023-03-03T06:41:37;21.40;47.40
44723;DHT22;30451;48.638;10.624;2023-03-03T06:44:03;21.60;47.20
44723;DHT22;30451;48.638;10.624;2023-03-03T06:46:29;21.80;46.70
44723;DHT22;30451;48.638;10.624;2023-03-03T06:48:54;22.00;46.90
44723;DHT22;30451;48.638;10.624;2023-03-03T06:51:32;22.20;45.90
44723;DHT22;30451;48.638;10.624;2023-03-03T06:54:02;22.40;45.60
44723;DHT22;30451;48.638;10.624;2023-03-03T06:56:34;22.60;45.40
44723;DHT22;30451;48.638;10.624;2023-03-03T06:59:04;22.80;45.60
44723;DHT22;30451;48.638;10.624;2023-03-03T07:01:34;22.90;44.80
44723;DHT22;30451;48.638;10.624;2023-03-03T07:04:00;23.00;44.60
44723;DHT22;30451;48.638;10.624;2023-03-03T07:06:26;23.00;44.80
44723;DHT22;30451;48.638;10.624;2023-03-03T07:08:53;22.70;44.90
44723;DHT22;30451;48.638;10.624;2023-03-03T07:11:21;22.60;45.30
44723;DHT22;30451;48.638;10.624;2023-03-03T07:13:49;22.60;45.30
44723;DHT22;30451;48.638;10.624;2023-03-03T07:16:16;22.80;45.30
44723;DHT22;30451;48.638;10.624;2023-03-03T07:18:54;23.00;45.20
44723;DHT22;30451;48.638;10.624;2023-03-03T07:21:32;23.10;45.00
44723;DHT22;30451;48.638;10.624;2023-03-03T07:24:00;23.20;44.30
44723;DHT22;30451;48.638;10.624;2023-03-03T07:26:30;23.10;44.30
44723;DHT22;30451;48.638;10.624;2023-03-03T07:31:46;22.90;44.50
44723;DHT22;30451;48.638;10.624;2023-03-03T07:34:43;22.90;44.20
44723;DHT22;30451;48.638;10.624;2023-03-03T07:37:16;22.80;44.00
44723;DHT22;30451;48.638;10.624;2023-03-03T07:39:44;22.70;43.80
44723;DHT22;30451;48.638;10.624;2023-03-03T07:44:45;22.70;43.90
44723;DHT22;30451;48.638;10.624;2023-03-03T07:47:25;22.70;44.00
44723;DHT22;30451;48.638;10.624;2023-03-03T07:49:54;22.70;44.00
44723;DHT22;30451;48.638;10.624;2023-03-03T07:54:52;22.70;44.20
44723;DHT22;30451;48.638;10.624;2023-03-03T07:57:37;22.70;44.30
44723;DHT22;30451;48.638;10.624;2023-03-03T08:07:51;22.70;44.30
44723;DHT22;30451;48.638;10.624;2023-03-03T08:13:19;22.70;44.30
44723;DHT22;30451;48.638;10.624;2023-03-03T08:18:45;22.70;44.40
44723;DHT22;30451;48.638;10.624;2023-03-03T08:21:19;22.70;45.10
44723;DHT22;30451;48.638;10.624;2023-03-03T08:23:47;22.90;45.00
44723;DHT22;30451;48.638;10.624;2023-03-03T08:26:17;23.20;44.80
44723;DHT22;30451;48.638;10.624;2023-03-03T08:28:44;23.40;44.20
44723;DHT22;30451;48.638;10.624;2023-03-03T08:31:09;23.60;43.70
44723;DHT22;30451;48.638;10.624;2023-03-03T08:33:35;23.60;43.30
44723;DHT22;30451;48.638;10.624;2023-03-03T08:36:01;23.50;43.50
44723;DHT22;30451;48.638;10.624;2023-03-03T08:38:27;23.40;43.70
44723;DHT22;30451;48.638;10.624;2023-03-03T08:40:52;23.30;43.80
44723;DHT22;30451;48.638;10.624;2023-03-03T08:43:18;23.20;43.90
44723;DHT22;30451;48.638;10.624;2023-03-03T08:45:50;23.20;44.00
44723;DHT22;30451;48.638;10.624;2023-03-03T08:48:17;23.20;44.10
44723;DHT22;30451;48.638;10.624;2023-03-03T08:50:43;23.20;44.20
44723;DHT22;30451;48.638;10.624;2023-03-03T08:53:09;23.20;44.20
44723;DHT22;30451;48.638;10.624;2023-03-03T08:55:36;23.20;44.20
44723;DHT22;30451;48.638;10.624;2023-03-03T08:58:02;23.20;44.30
44723;DHT22;30451;48.638;10.624;2023-03-03T09:00:27;23.20;44.30
44723;DHT22;30451;48.638;10.624;2023-03-03T09:02:53;23.20;44.20
44723;DHT22;30451;48.638;10.624;2023-03-03T09:05:20;23.20;44.80
44723;DHT22;30451;48.638;10.624;2023-03-03T09:07:46;23.10;44.20
44723;DHT22;30451;48.638;10.624;2023-03-03T09:10:14;23.10;44.90
44723;DHT22;30451;48.638;10.624;2023-03-03T09:12:43;23.10;44.70
44723;DHT22;30451;48.638;10.624;2023-03-03T09:17:40;23.20;44.40
44723;DHT22;30451;48.638;10.624;2023-03-03T09:23:27;23.10;44.40
44723;DHT22;30451;48.638;10.624;2023-03-03T09:25:54;23.10;44.30
44723;DHT22;30451;48.638;10.624;2023-03-03T09:28:27;23.10;44.30
44723;DHT22;30451;48.638;10.624;2023-03-03T09:30:55;23.10;44.60
44723;DHT22;30451;48.638;10.624;2023-03-03T09:33:28;23.10;43.90
44723;DHT22;30451;48.638;10.624;2023-03-03T09:36:29;23.20;43.60
44723;DHT22;30451;48.638;10.624;2023-03-03T09:39:00;23.20;43.30
44723;DHT22;30451;48.638;10.624;2023-03-03T09:41:59;23.20;43.60
44723;DHT22;30451;48.638;10.624;2023-03-03T09:53:14;23.00;44.00
44723;DHT22;30451;48.638;10.624;2023-03-03T10:04:21;23.00;44.30
44723;DHT22;30451;48.638;10.624;2023-03-03T10:10:10;23.00;44.30
44723;DHT22;30451;48.638;10.624;2023-03-03T10:15:29;23.00;44.30
44723;DHT22;30451;48.638;10.624;2023-03-03T10:18:09;23.00;44.40
44723;DHT22;30451;48.638;10.624;2023-03-03T10:23:37;23.00;44.50
44723;DHT22;30451;48.638;10.624;2023-03-03T10:29:14;23.00;44.50
44723;DHT22;30451;48.638;10.624;2023-03-03T10:47:39;23.10;44.70
44723;DHT22;30451;48.638;10.624;2023-03-03T10:58:13;23.20;44.80
44723;DHT22;30451;48.638;10.624;2023-03-03T11:00:45;23.20;44.90
44723;DHT22;30451;48.638;10.624;2023-03-03T11:06:30;23.10;44.70
44723;DHT22;30451;48.638;10.624;2023-03-03T11:21:00;23.20;44.60
44723;DHT22;30451;48.638;10.624;2023-03-03T11:45:45;23.40;45.20
44723;DHT22;30451;48.638;10.624;2023-03-03T11:48:37;23.40;45.40
44723;DHT22;30451;48.638;10.624;2023-03-03T11:51:18;23.40;45.30
44723;DHT22;30451;48.638;10.624;2023-03-03T11:54:20;23.50;45.20
44723;DHT22;30451;48.638;10.624;2023-03-03T11:56:48;23.50;45.20
44723;DHT22;30451;48.638;10.624;2023-03-03T11:59:38;23.50;44.50
44723;DHT22;30451;48.638;10.624;2023-03-03T12:04:43;23.50;44.10
44723;DHT22;30451;48.638;10.624;2023-03-03T12:12:42;23.50;44.10
44723;DHT22;30451;48.638;10.624;2023-03-03T12:15:40;23.50;44.70
44723;DHT22;30451;48.638;10.624;2023-03-03T12:18:43;23.50;44.10
44723;DHT22;30451;48.638;10.624;2023-03-03T12:29:32;23.50;44.20
44723;DHT22;30451;48.638;10.624;2023-03-03T12:35:13;23.50;44.30
44723;DHT22;30451;48.638;10.624;2023-03-03T12:38:20;23.50;44.20
44723;DHT22;30451;48.638;10.624;2023-03-03T12:43:56;23.50;44.20
44723;DHT22;30451;48.638;10.624;2023-03-03T12:48:53;23.50;44.30
44723;DHT22;30451;48.638;10.624;2023-03-03T12:56:44;23.50;44.30
44723;DHT22;30451;48.638;10.624;2023-03-03T12:59:19;23.50;44.80
44723;DHT22;30451;48.638;10.624;2023-03-03T13:11:08;23.50;44.60
44723;DHT22;30451;48.638;10.624;2023-03-03T13:14:02;23.50;44.60
44723;DHT22;30451;48.638;10.624;2023-03-03T13:16:41;23.50;44.80
44723;DHT22;30451;48.638;10.624;2023-03-03T13:19:25;23.50;45.00
44723;DHT22;30451;48.638;10.624;2023-03-03T13:21:59;23.50;45.10
44723;DHT22;30451;48.638;10.624;2023-03-03T13:27:19;23.50;44.90
44723;DHT22;30451;48.638;10.624;2023-03-03T13:32:41;23.50;44.90
44723;DHT22;30451;48.638;10.624;2023-03-03T13:35:17;23.60;45.00
44723;DHT22;30451;48.638;10.624;2023-03-03T13:37:52;23.60;45.00
44723;DHT22;30451;48.638;10.624;2023-03-03T13:40:26;23.60;44.90
44723;DHT22;30451;48.638;10.624;2023-03-03T13:43:07;23.60;44.90
44723;DHT22;30451;48.638;10.624;2023-03-03T13:48:46;23.60;45.00
44723;DHT22;30451;48.638;10.624;2023-03-03T13:51:28;23.60;44.90
44723;DHT22;30451;48.638;10.624;2023-03-03T13:59:55;23.70;45.00
44723;DHT22;30451;48.638;10.624;2023-03-03T14:05:25;23.70;44.80
44723;DHT22;30451;48.638;10.624;2023-03-03T14:08:15;23.70;44.80
44723;DHT22;30451;48.638;10.624;2023-03-03T14:10:51;23.70;44.80
44723;DHT22;30451;48.638;10.624;2023-03-03T14:16:03;23.70;44.80
44723;DHT22;30451;48.638;10.624;2023-03-03T14:18:38;23.70;44.80
44723;DHT22;30451;48.638;10.624;2023-03-03T14:21:10;23.70;44.80
44723;DHT22;30451;48.638;10.624;2023-03-03T14:26:24;23.70;45.10
44723;DHT22;30451;48.638;10.624;2023-03-03T14:28:50;23.70;45.20
44723;DHT22;30451;48.638;10.624;2023-03-03T14:31:26;23.70;45.30
44723;DHT22;30451;48.638;10.624;2023-03-03T14:36:56;23.70;45.30
44723;DHT22;30451;48.638;10.624;2023-03-03T14:45:38;23.70;45.40
44723;DHT22;30451;48.638;10.624;2023-03-03T14:50:50;23.70;45.50
44723;DHT22;30451;48.638;10.624;2023-03-03T14:53:22;23.80;45.50
44723;DHT22;30451;48.638;10.624;2023-03-03T14:55:50;23.70;45.70
44723;DHT22;30451;48.638;10.624;2023-03-03T14:58:39;23.80;45.70
44723;DHT22;30451;48.638;10.624;2023-03-03T15:03:59;23.80;45.60
44723;DHT22;30451;48.638;10.624;2023-03-03T15:06:48;23.80;45.50
44723;DHT22;30451;48.638;10.624;2023-03-03T15:09:28;23.80;45.50
44723;DHT22;30451;48.638;10.624;2023-03-03T15:11:56;23.90;45.50
44723;DHT22;30451;48.638;10.624;2023-03-03T15:14:35;23.80;45.50
44723;DHT22;30451;48.638;10.624;2023-03-03T15:17:23;23.80;46.00
44723;DHT22;30451;48.638;10.624;2023-03-03T15:20:02;23.80;45.70
44723;DHT22;30451;48.638;10.624;2023-03-03T15:25:25;23.80;45.40
44723;DHT22;30451;48.638;10.624;2023-03-03T15:28:09;23.80;45.20
44723;DHT22;30451;48.638;10.624;2023-03-03T15:36:27;23.80;45.00
44723;DHT22;30451;48.638;10.624;2023-03-03T15:41:59;23.70;44.90
44723;DHT22;30451;48.638;10.624;2023-03-03T15:53:09;23.60;44.90
44723;DHT22;30451;48.638;10.624;2023-03-03T15:55:52;23.60;45.00
44723;DHT22;30451;48.638;10.624;2023-03-03T15:58:46;23.60;45.10
44723;DHT22;30451;48.638;10.624;2023-03-03T16:01:24;23.60;45.10
44723;DHT22;30451;48.638;10.624;2023-03-03T16:04:01;23.60;45.20
44723;DHT22;30451;48.638;10.624;2023-03-03T16:09:45;23.50;45.20
44723;DHT22;30451;48.638;10.624;2023-03-03T16:12:29;23.50;45.80
44723;DHT22;30451;48.638;10.624;2023-03-03T16:15:29;23.50;45.30
44723;DHT22;30451;48.638;10.624;2023-03-03T16:26:55;23.40;45.30
44723;DHT22;30451;48.638;10.624;2023-03-03T16:32:20;23.40;45.30
44723;DHT22;30451;48.638;10.624;2023-03-03T16:35:12;23.40;45.40
44723;DHT22;30451;48.638;10.624;2023-03-03T16:40:22;23.40;45.40
44723;DHT22;30451;48.638;10.624;2023-03-03T16:42:53;23.40;45.40
44723;DHT22;30451;48.638;10.624;2023-03-03T16:45:25;23.40;45.40
44723;DHT22;30451;48.638;10.624;2023-03-03T17:07:02;23.40;45.10
44723;DHT22;30451;48.638;10.624;2023-03-03T17:12:41;23.40;45.20
44723;DHT22;30451;48.638;10.624;2023-03-03T17:18:12;23.40;45.10
44723;DHT22;30451;48.638;10.624;2023-03-03T17:20:50;23.40;45.10
44723;DHT22;30451;48.638;10.624;2023-03-03T17:24:35;23.40;45.10
44723;DHT22;30451;48.638;10.624;2023-03-03T17:29:38;23.40;45.10
44723;DHT22;30451;48.638;10.624;2023-03-03T17:32:19;23.40;45.10
44723;DHT22;30451;48.638;10.624;2023-03-03T17:40:18;23.40;45.00
44723;DHT22;30451;48.638;10.624;2023-03-03T17:43:10;23.40;45.00
44723;DHT22;30451;48.638;10.624;2023-03-03T17:45:41;23.30;45.10
44723;DHT22;30451;48.638;10.624;2023-03-03T17:54:07;23.30;45.30
44723;DHT22;30451;48.638;10.624;2023-03-03T18:08:23;23.20;45.40
44723;DHT22;30451;48.638;10.624;2023-03-03T18:11:18;23.20;45.40
44723;DHT22;30451;48.638;10.624;2023-03-03T18:16:19;23.20;45.50
44723;DHT22;30451;48.638;10.624;2023-03-03T18:21:27;23.20;45.50
44723;DHT22;30451;48.638;10.624;2023-03-03T18:26:53;23.20;45.80
44723;DHT22;30451;48.638;10.624;2023-03-03T18:29:24;23.20;45.70
44723;DHT22;30451;48.638;10.624;2023-03-03T18:32:00;23.20;45.70
44723;DHT22;30451;48.638;10.624;2023-03-03T18:34:34;23.20;45.70
44723;DHT22;30451;48.638;10.624;2023-03-03T18:42:37;23.30;45.50
44723;DHT22;30451;48.638;10.624;2023-03-03T18:48:02;23.30;45.40
44723;DHT22;30451;48.638;10.624;2023-03-03T18:50:33;23.40;45.50
44723;DHT22;30451;48.638;10.624;2023-03-03T18:55:45;23.40;45.40
44723;DHT22;30451;48.638;10.624;2023-03-03T19:00:47;23.40;45.40
44723;DHT22;30451;48.638;10.624;2023-03-03T19:03:53;23.40;45.30
44723;DHT22;30451;48.638;10.624;2023-03-03T19:09:10;23.40;45.30
44723;DHT22;30451;48.638;10.624;2023-03-03T19:11:49;23.40;45.20
44723;DHT22;30451;48.638;10.624;2023-03-03T19:22:44;23.50;45.20
44723;DHT22;30451;48.638;10.624;2023-03-03T19:25:26;23.50;45.20
44723;DHT22;30451;48.638;10.624;2023-03-03T19:31:00;23.50;45.10
44723;DHT22;30451;48.638;10.624;2023-03-03T19:49:33;23.50;45.00
44723;DHT22;30451;48.638;10.624;2023-03-03T19:52:21;23.50;44.90
44723;DHT22;30451;48.638;10.624;2023-03-03T19:54:54;23.50;45.00
44723;DHT22;30451;48.638;10.624;2023-03-03T20:00:17;23.50;45.00
44723;DHT22;30451;48.638;10.624;2023-03-03T20:05:55;23.50;44.90
44723;DHT22;30451;48.638;10.624;2023-03-03T20:11:45;23.50;44.90
44723;DHT22;30451;48.638;10.624;2023-03-03T20:25:13;23.50;44.90
44723;DHT22;30451;48.638;10.624;2023-03-03T20:39:09;23.50;44.90
44723;DHT22;30451;48.638;10.624;2023-03-03T20:47:21;23.50;44.90
44723;DHT22;30451;48.638;10.624;2023-03-03T20:50:25;23.50;45.00
44723;DHT22;30451;48.638;10.624;2023-03-03T20:55:41;23.50;44.90
44723;DHT22;30451;48.638;10.624;2023-03-03T20:58:26;23.50;44.90
44723;DHT22;30451;48.638;10.624;2023-03-03T21:01:06;23.50;45.00
44723;DHT22;30451;48.638;10.624;2023-03-03T21:03:43;23.50;45.50
44723;DHT22;30451;48.638;10.624;2023-03-03T21:06:17;23.50;45.00
44723;DHT22;30451;48.638;10.624;2023-03-03T21:08:55;23.50;45.00
44723;DHT22;30451;48.638;10.624;2023-03-03T21:13:58;23.50;45.00
44723;DHT22;30451;48.638;10.624;2023-03-03T21:19:03;23.50;44.90
44723;DHT22;30451;48.638;10.624;2023-03-03T21:21:33;23.50;45.00
44723;DHT22;30451;48.638;10.624;2023-03-03T21:24:00;23.50;44.90
44723;DHT22;30451;48.638;10.624;2023-03-03T21:34:33;23.50;44.80
44723;DHT22;30451;48.638;10.624;2023-03-03T21:37:01;23.50;44.70
44723;DHT22;30451;48.638;10.624;2023-03-03T21:39:35;23.50;44.70
44723;DHT22;30451;48.638;10.624;2023-03-03T21:42:08;23.50;44.70
44723;DHT22;30451;48.638;10.624;2023-03-03T21:44:35;23.50;44.60
44723;DHT22;30451;48.638;10.624;2023-03-03T21:47:02;23.60;44.70
44723;DHT22;30451;48.638;10.624;2023-03-03T21:49:27;23.60;44.70
44723;DHT22;30451;48.638;10.624;2023-03-03T21:51:54;23.50;44.60
44723;DHT22;30451;48.638;10.624;2023-03-03T21:54:21;23.60;44.70
44723;DHT22;30451;48.638;10.624;2023-03-03T21:56:46;23.60;44.70
44723;DHT22;30451;48.638;10.624;2023-03-03T21:59:14;23.60;44.60
44723;DHT22;30451;48.638;10.624;2023-03-03T22:01:40;23.60;44.60
44723;DHT22;30451;48.638;10.624;2023-03-03T22:04:06;23.60;44.50
44723;DHT22;30451;48.638;10.624;2023-03-03T22:06:31;23.60;44.50
44723;DHT22;30451;48.638;10.624;2023-03-03T22:08:57;23.60;44.60
44723;DHT22;30451;48.638;10.624;2023-03-03T22:11:23;23.60;44.70
44723;DHT22;30451;48.638;10.624;2023-03-03T22:13:49;23.50;44.50
44723;DHT22;30451;48.638;10.624;2023-03-03T22:16:14;23.60;44.60
44723;DHT22;30451;48.638;10.624;2023-03-03T22:18:40;23.60;44.60
44723;DHT22;30451;48.638;10.624;2023-03-03T22:21:06;23.50;44.50